createdAt,value
2019-03-16T00:00:49.035Z,995.12
2019-03-16T00:01:57.102Z,995.16
2019-03-16T00:02:49.173Z,995.15
2019-03-16T00:03:48.785Z,995.22
2019-03-16T00:04:48.697Z,995.13
2019-03-16T00:05:48.622Z,995.27
2019-03-16T00:06:48.535Z,995.32
2019-03-16T00:07:48.449Z,995.36
2019-03-16T00:08:48.360Z,995.28
2019-03-16T00:09:48.362Z,995.37
2019-03-16T00:10:48.197Z,995.38
2019-03-16T00:11:48.135Z,995.45
2019-03-16T00:12:48.025Z,995.52
2019-03-16T00:13:47.941Z,995.43
2019-03-16T00:14:47.849Z,995.46
2019-03-16T00:15:47.773Z,995.47
2019-03-16T00:16:47.687Z,995.48
2019-03-16T00:17:47.613Z,995.55
2019-03-16T00:18:47.512Z,995.54
2019-03-16T00:19:47.490Z,995.57
2019-03-16T00:20:47.349Z,995.55
2019-03-16T00:21:47.261Z,995.51
2019-03-16T00:22:47.174Z,995.58
2019-03-16T00:23:47.088Z,995.53
2019-03-16T00:24:47.013Z,995.66
2019-03-16T00:25:46.925Z,995.56
2019-03-16T00:26:46.839Z,995.73
2019-03-16T00:27:46.750Z,995.58
2019-03-16T00:28:46.663Z,995.68
2019-03-16T00:29:46.589Z,995.63
2019-03-16T00:30:46.501Z,995.69
2019-03-16T00:31:46.414Z,995.67
2019-03-16T00:32:46.339Z,995.61
2019-03-16T00:33:46.239Z,995.75
2019-03-16T00:34:46.164Z,995.76
2019-03-16T00:35:46.076Z,995.68
2019-03-16T00:36:45.989Z,995.85
2019-03-16T00:37:45.901Z,995.78
2019-03-16T00:38:45.827Z,995.94
2019-03-16T00:39:45.746Z,995.85
2019-03-16T00:40:45.651Z,995.81
2019-03-16T00:41:45.568Z,995.89
2019-03-16T00:42:45.726Z,995.96
2019-03-16T00:43:45.401Z,995.92
2019-03-16T00:44:45.319Z,995.78
2019-03-16T00:45:45.236Z,995.97
2019-03-16T00:46:45.141Z,995.96
2019-03-16T00:47:45.054Z,995.91
2019-03-16T00:48:44.977Z,995.93
2019-03-16T00:49:44.890Z,995.88
2019-03-16T00:50:44.805Z,995.93
2019-03-16T00:51:44.717Z,995.95
2019-03-16T00:52:44.931Z,995.89
2019-03-16T00:53:44.552Z,995.98
2019-03-16T00:54:44.465Z,995.97
2019-03-16T00:55:44.381Z,995.95
2019-03-16T00:56:44.293Z,996.01
2019-03-16T00:57:44.203Z,996.02
2019-03-16T00:58:44.129Z,995.96
2019-03-16T00:59:44.042Z,996.09
2019-03-16T01:00:43.956Z,996.06
2019-03-16T01:01:43.866Z,995.98
2019-03-16T01:02:43.779Z,996.06
2019-03-16T01:03:43.718Z,996.07
2019-03-16T01:04:43.619Z,996.11
2019-03-16T01:05:43.529Z,996.09
2019-03-16T01:06:43.444Z,995.95
2019-03-16T01:07:43.357Z,996.03
2019-03-16T01:08:43.281Z,996.00
2019-03-16T01:09:43.731Z,996.06
2019-03-16T01:10:43.107Z,996.06
2019-03-16T01:11:43.018Z,996.14
2019-03-16T01:12:42.931Z,996.11
2019-03-16T01:13:42.868Z,996.14
2019-03-16T01:14:42.768Z,996.16
2019-03-16T01:15:42.680Z,996.21
2019-03-16T01:16:42.597Z,996.23
2019-03-16T01:17:42.505Z,996.13
2019-03-16T01:18:42.430Z,996.21
2019-03-16T01:19:42.344Z,996.28
2019-03-16T01:20:42.256Z,996.26
2019-03-16T01:21:42.169Z,996.27
2019-03-16T01:22:42.084Z,996.18
2019-03-16T01:23:42.006Z,996.31
2019-03-16T01:24:41.920Z,996.40
2019-03-16T01:25:41.831Z,996.38
2019-03-16T01:26:41.744Z,996.38
2019-03-16T01:27:41.907Z,996.21
2019-03-16T01:28:41.583Z,996.37
2019-03-16T01:29:41.494Z,996.27
2019-03-16T01:30:41.407Z,996.28
2019-03-16T01:31:41.320Z,996.40
2019-03-16T01:32:41.242Z,996.26
2019-03-16T01:33:41.157Z,996.46
2019-03-16T01:34:43.943Z,996.50
2019-03-16T01:35:40.995Z,996.38
2019-03-16T01:36:40.895Z,996.43
2019-03-16T01:37:41.057Z,996.40
2019-03-16T01:38:40.732Z,996.42
2019-03-16T01:39:40.646Z,996.46
2019-03-16T01:40:40.561Z,996.48
2019-03-16T01:41:40.471Z,996.55
2019-03-16T01:42:40.384Z,996.59
2019-03-16T01:43:40.308Z,996.63
2019-03-16T01:44:40.221Z,996.65
2019-03-16T01:45:40.133Z,996.66
2019-03-16T01:46:40.047Z,996.65
2019-03-16T01:47:40.050Z,996.59
2019-03-16T01:48:39.885Z,996.60
2019-03-16T01:49:39.799Z,996.78
2019-03-16T01:50:39.716Z,996.65
2019-03-16T01:51:39.623Z,996.67
2019-03-16T01:52:39.547Z,996.56
2019-03-16T01:53:39.467Z,996.64
2019-03-16T01:54:39.374Z,996.57
2019-03-16T01:55:39.284Z,996.61
2019-03-16T01:56:39.197Z,996.63
2019-03-16T01:57:39.111Z,996.78
2019-03-16T01:58:39.034Z,996.63
2019-03-16T01:59:38.948Z,996.69
2019-03-16T02:00:38.859Z,996.65
2019-03-16T02:01:38.773Z,996.62
2019-03-16T02:02:38.686Z,996.68
2019-03-16T02:03:38.612Z,996.67
2019-03-16T02:04:38.523Z,996.70
2019-03-16T02:05:38.435Z,996.67
2019-03-16T02:06:38.349Z,996.66
2019-03-16T02:07:38.262Z,996.66
2019-03-16T02:08:38.186Z,996.68
2019-03-16T02:09:38.099Z,996.66
2019-03-16T02:10:38.012Z,996.78
2019-03-16T02:11:37.925Z,996.71
2019-03-16T02:12:38.136Z,996.79
2019-03-16T02:13:37.764Z,996.72
2019-03-16T02:14:37.675Z,996.79
2019-03-16T02:15:37.586Z,996.82
2019-03-16T02:16:37.500Z,996.76
2019-03-16T02:17:37.416Z,996.74
2019-03-16T02:18:37.413Z,996.80
2019-03-16T02:19:37.260Z,996.89
2019-03-16T02:20:37.162Z,996.84
2019-03-16T02:21:37.171Z,996.92
2019-03-16T02:22:37.288Z,996.90
2019-03-16T02:23:36.914Z,996.91
2019-03-16T02:24:36.826Z,996.97
2019-03-16T02:25:36.740Z,997.01
2019-03-16T02:26:36.653Z,997.04
2019-03-16T02:27:36.863Z,997.02
2019-03-16T02:28:36.488Z,997.02
2019-03-16T02:29:36.401Z,997.02
2019-03-16T02:30:36.314Z,997.12
2019-03-16T02:31:36.227Z,996.89
2019-03-16T02:32:36.141Z,997.05
2019-03-16T02:33:36.063Z,997.13
2019-03-16T02:34:35.977Z,997.06
2019-03-16T02:35:35.895Z,997.08
2019-03-16T02:36:35.814Z,997.19
2019-03-16T02:37:36.014Z,997.21
2019-03-16T02:38:35.648Z,997.20
2019-03-16T02:39:35.553Z,997.17
2019-03-16T02:40:35.492Z,997.30
2019-03-16T02:41:35.378Z,997.29
2019-03-16T02:42:35.305Z,997.27
2019-03-16T02:43:35.214Z,997.24
2019-03-16T02:44:35.128Z,997.31
2019-03-16T02:45:35.052Z,997.29
2019-03-16T02:46:34.953Z,997.23
2019-03-16T02:47:34.865Z,997.36
2019-03-16T02:48:34.779Z,997.38
2019-03-16T02:49:34.703Z,997.39
2019-03-16T02:50:34.622Z,997.29
2019-03-16T02:51:34.529Z,997.42
2019-03-16T02:52:34.454Z,997.49
2019-03-16T02:53:34.466Z,997.47
2019-03-16T02:54:34.278Z,997.52
2019-03-16T02:55:34.205Z,997.57
2019-03-16T02:56:34.108Z,997.59
2019-03-16T02:57:34.317Z,997.63
2019-03-16T02:58:33.930Z,997.64
2019-03-16T02:59:33.854Z,997.64
2019-03-16T03:00:33.767Z,997.65
2019-03-16T03:01:33.684Z,997.66
2019-03-16T03:02:33.603Z,997.58
2019-03-16T03:03:33.517Z,997.66
2019-03-16T03:04:33.419Z,997.63
2019-03-16T03:05:33.360Z,997.68
2019-03-16T03:06:33.256Z,997.75
2019-03-16T03:07:33.170Z,997.72
2019-03-16T03:08:33.080Z,997.74
2019-03-16T03:09:32.996Z,997.77
2019-03-16T03:10:32.918Z,997.73
2019-03-16T03:11:32.830Z,997.77
2019-03-16T03:12:32.742Z,997.68
2019-03-16T03:13:32.656Z,997.75
2019-03-16T03:14:32.570Z,997.70
2019-03-16T03:15:32.494Z,997.69
2019-03-16T03:16:32.406Z,997.67
2019-03-16T03:17:32.319Z,997.83
2019-03-16T03:18:32.236Z,997.74
2019-03-16T03:19:32.295Z,997.85
2019-03-16T03:20:32.068Z,997.77
2019-03-16T03:21:31.983Z,997.85
2019-03-16T03:22:31.896Z,997.86
2019-03-16T03:23:31.808Z,997.82
2019-03-16T03:24:31.720Z,997.88
2019-03-16T03:25:31.644Z,997.82
2019-03-16T03:26:31.563Z,997.81
2019-03-16T03:27:31.724Z,997.88
2019-03-16T03:28:31.385Z,997.89
2019-03-16T03:29:31.295Z,997.92
2019-03-16T03:30:31.229Z,997.85
2019-03-16T03:31:31.138Z,997.97
2019-03-16T03:32:31.045Z,997.87
2019-03-16T03:33:57.780Z,997.89
2019-03-16T03:34:30.871Z,998.03
2019-03-16T03:35:30.813Z,998.00
2019-03-16T03:36:30.712Z,998.14
2019-03-16T03:37:30.621Z,998.11
2019-03-16T03:38:30.534Z,998.08
2019-03-16T03:39:30.446Z,998.10
2019-03-16T03:40:30.358Z,998.10
2019-03-16T03:41:30.289Z,998.13
2019-03-16T03:42:30.196Z,998.21
2019-03-16T03:43:30.114Z,998.20
2019-03-16T03:44:30.028Z,998.22
2019-03-16T03:45:29.935Z,998.16
2019-03-16T03:46:32.270Z,998.25
2019-03-16T03:47:29.787Z,998.33
2019-03-16T03:48:29.686Z,998.28
2019-03-16T03:49:29.602Z,998.28
2019-03-16T03:50:29.512Z,998.23
2019-03-16T03:51:29.467Z,998.29
2019-03-16T03:52:29.348Z,998.32
2019-03-16T03:53:29.262Z,998.36
2019-03-16T03:54:29.189Z,998.34
2019-03-16T03:55:29.090Z,998.37
2019-03-16T03:56:28.998Z,998.35
2019-03-16T03:57:28.929Z,998.45
2019-03-16T03:58:28.840Z,998.33
2019-03-16T03:59:28.750Z,998.31
2019-03-16T04:00:28.663Z,998.40
2019-03-16T04:01:28.578Z,998.40
2019-03-16T04:02:28.499Z,998.40
2019-03-16T04:03:28.415Z,998.42
2019-03-16T04:04:28.330Z,998.45
2019-03-16T04:05:28.237Z,998.54
2019-03-16T04:06:28.157Z,998.41
2019-03-16T04:07:28.074Z,998.47
2019-03-16T04:08:27.989Z,998.46
2019-03-16T04:09:27.913Z,998.48
2019-03-16T04:10:27.815Z,998.44
2019-03-16T04:11:27.733Z,998.49
2019-03-16T04:12:27.649Z,998.48
2019-03-16T04:13:27.563Z,998.48
2019-03-16T04:14:27.474Z,998.55
2019-03-16T04:15:27.388Z,998.56
2019-03-16T04:16:27.312Z,998.56
2019-03-16T04:17:27.225Z,998.56
2019-03-16T04:18:27.139Z,998.69
2019-03-16T04:19:27.050Z,998.59
2019-03-16T04:20:26.964Z,998.66
2019-03-16T04:21:26.876Z,998.67
2019-03-16T04:22:27.043Z,998.73
2019-03-16T04:23:26.725Z,998.65
2019-03-16T04:24:26.626Z,998.70
2019-03-16T04:25:26.544Z,998.68
2019-03-16T04:26:26.451Z,998.72
2019-03-16T04:27:26.366Z,998.82
2019-03-16T04:28:26.297Z,998.81
2019-03-16T04:29:26.218Z,998.83
2019-03-16T04:30:26.117Z,998.92
2019-03-16T04:31:26.027Z,998.91
2019-03-16T04:32:25.943Z,998.93
2019-03-16T04:33:25.865Z,998.94
2019-03-16T04:34:29.439Z,998.90
2019-03-16T04:35:25.694Z,998.96
2019-03-16T04:36:25.602Z,998.93
2019-03-16T04:37:25.815Z,998.91
2019-03-16T04:38:25.429Z,998.97
2019-03-16T04:39:25.354Z,998.99
2019-03-16T04:40:25.265Z,998.93
2019-03-16T04:41:25.177Z,999.03
2019-03-16T04:42:25.091Z,998.96
2019-03-16T04:43:25.003Z,998.95
2019-03-16T04:44:24.916Z,998.99
2019-03-16T04:45:24.841Z,998.96
2019-03-16T04:46:24.753Z,998.99
2019-03-16T04:47:24.919Z,998.94
2019-03-16T04:48:24.590Z,998.98
2019-03-16T04:49:24.491Z,998.97
2019-03-16T04:50:24.416Z,998.98
2019-03-16T04:51:24.331Z,999.06
2019-03-16T04:52:24.242Z,999.08
2019-03-16T04:53:24.153Z,999.01
2019-03-16T04:54:24.071Z,998.95
2019-03-16T04:55:23.992Z,999.06
2019-03-16T04:56:23.904Z,999.08
2019-03-16T04:57:23.817Z,999.05
2019-03-16T04:58:23.730Z,999.09
2019-03-16T04:59:23.655Z,999.09
2019-03-16T05:00:23.567Z,999.13
2019-03-16T05:01:23.492Z,999.12
2019-03-16T05:02:23.395Z,999.13
2019-03-16T05:03:23.305Z,999.11
2019-03-16T05:04:23.217Z,999.15
2019-03-16T05:05:23.130Z,999.24
2019-03-16T05:06:23.055Z,999.20
2019-03-16T05:07:22.968Z,999.25
2019-03-16T05:08:22.893Z,999.25
2019-03-16T05:09:22.793Z,999.24
2019-03-16T05:10:22.706Z,999.23
2019-03-16T05:11:22.621Z,999.25
2019-03-16T05:12:22.537Z,999.24
2019-03-16T05:13:22.456Z,999.20
2019-03-16T05:14:22.388Z,999.23
2019-03-16T05:15:22.295Z,999.24
2019-03-16T05:16:22.194Z,999.28
2019-03-16T05:17:22.107Z,999.26
2019-03-16T05:18:22.032Z,999.30
2019-03-16T05:19:21.948Z,999.28
2019-03-16T05:20:21.857Z,999.25
2019-03-16T05:21:21.771Z,999.28
2019-03-16T05:22:21.982Z,999.29
2019-03-16T05:23:21.606Z,999.38
2019-03-16T05:24:21.520Z,999.42
2019-03-16T05:25:21.432Z,999.45
2019-03-16T05:26:21.345Z,999.45
2019-03-16T05:27:21.257Z,999.45
2019-03-16T05:28:21.171Z,999.47
2019-03-16T05:29:21.100Z,999.51
2019-03-16T05:30:21.026Z,999.47
2019-03-16T05:31:20.921Z,999.48
2019-03-16T05:32:20.833Z,999.51
2019-03-16T05:33:20.769Z,999.49
2019-03-16T05:34:20.671Z,999.50
2019-03-16T05:35:20.595Z,999.51
2019-03-16T05:36:20.497Z,999.49
2019-03-16T05:37:20.409Z,999.55
2019-03-16T05:38:20.325Z,999.58
2019-03-16T05:39:20.235Z,999.53
2019-03-16T05:40:20.158Z,999.61
2019-03-16T05:41:20.072Z,999.54
2019-03-16T05:42:20.234Z,999.69
2019-03-16T05:43:19.898Z,999.74
2019-03-16T05:44:19.809Z,999.75
2019-03-16T05:45:19.734Z,999.81
2019-03-16T05:46:19.648Z,999.77
2019-03-16T05:47:19.560Z,999.79
2019-03-16T05:48:19.472Z,999.80
2019-03-16T05:49:19.386Z,999.84
2019-03-16T05:50:19.310Z,999.89
2019-03-16T05:51:19.223Z,999.87
2019-03-16T05:52:19.136Z,999.84
2019-03-16T05:53:19.049Z,999.85
2019-03-16T05:54:18.961Z,999.88
2019-03-16T05:55:18.886Z,999.90
2019-03-16T05:56:18.799Z,999.85
2019-03-16T05:57:18.960Z,999.94
2019-03-16T05:58:18.626Z,999.95
2019-03-16T05:59:18.536Z,999.98
2019-03-16T06:00:18.450Z,1000.00
2019-03-16T06:01:18.377Z,999.97
2019-03-16T06:02:18.287Z,1000.05
2019-03-16T06:03:18.200Z,1000.03
2019-03-16T06:04:18.112Z,1000.03
2019-03-16T06:05:18.037Z,1000.11
2019-03-16T06:06:17.987Z,1000.14
2019-03-16T06:07:17.861Z,1000.22
2019-03-16T06:08:17.775Z,1000.15
2019-03-16T06:09:17.688Z,1000.21
2019-03-16T06:10:17.613Z,1000.18
2019-03-16T06:11:17.526Z,1000.20
2019-03-16T06:12:17.438Z,1000.18
2019-03-16T06:13:17.350Z,1000.20
2019-03-16T06:14:17.275Z,1000.23
2019-03-16T06:15:17.190Z,1000.28
2019-03-16T06:16:17.101Z,1000.31
2019-03-16T06:17:17.021Z,1000.28
2019-03-16T06:18:16.927Z,1000.27
2019-03-16T06:19:16.839Z,1000.25
2019-03-16T06:20:16.771Z,1000.28
2019-03-16T06:21:16.676Z,1000.27
2019-03-16T06:22:16.838Z,1000.28
2019-03-16T06:23:16.503Z,1000.30
2019-03-16T06:24:16.427Z,1000.37
2019-03-16T06:25:16.342Z,1000.31
2019-03-16T06:26:16.266Z,1000.35
2019-03-16T06:27:16.165Z,1000.37
2019-03-16T06:28:16.077Z,1000.35
2019-03-16T06:29:16.005Z,1000.38
2019-03-16T06:30:15.978Z,1000.40
2019-03-16T06:31:15.828Z,1000.44
2019-03-16T06:32:15.742Z,1000.50
2019-03-16T06:33:15.664Z,1000.50
2019-03-16T06:34:15.578Z,1000.49
2019-03-16T06:35:24.376Z,1000.52
2019-03-16T06:36:15.402Z,1000.50
2019-03-16T06:37:15.332Z,1000.53
2019-03-16T06:38:15.240Z,1000.53
2019-03-16T06:39:15.154Z,1000.50
2019-03-16T06:40:15.066Z,1000.56
2019-03-16T06:41:14.994Z,1000.43
2019-03-16T06:42:14.904Z,1000.55
2019-03-16T06:43:14.821Z,1000.53
2019-03-16T06:44:14.730Z,1000.61
2019-03-16T06:45:14.660Z,1000.61
2019-03-16T06:46:14.566Z,1000.64
2019-03-16T06:47:14.480Z,1000.65
2019-03-16T06:48:14.404Z,1000.67
2019-03-16T06:49:14.330Z,1000.64
2019-03-16T06:50:14.230Z,1000.66
2019-03-16T06:51:14.142Z,1000.74
2019-03-16T06:52:14.067Z,1000.67
2019-03-16T06:53:13.980Z,1000.78
2019-03-16T06:54:13.892Z,1000.78
2019-03-16T06:55:13.818Z,1000.75
2019-03-16T06:56:13.730Z,1000.73
2019-03-16T06:57:13.642Z,1000.72
2019-03-16T06:58:13.555Z,1000.76
2019-03-16T06:59:13.481Z,1000.78
2019-03-16T07:00:13.405Z,1000.77
2019-03-16T07:01:13.307Z,1000.82
2019-03-16T07:02:13.219Z,1000.77
2019-03-16T07:03:13.156Z,1000.77
2019-03-16T07:04:13.056Z,1000.84
2019-03-16T07:05:13.122Z,1000.87
2019-03-16T07:06:12.893Z,1000.88
2019-03-16T07:07:12.806Z,1000.90
2019-03-16T07:08:12.719Z,1000.86
2019-03-16T07:09:12.673Z,1000.77
2019-03-16T07:10:12.557Z,1000.90
2019-03-16T07:11:12.469Z,1000.83
2019-03-16T07:12:12.382Z,1000.86
2019-03-16T07:13:12.307Z,1000.93
2019-03-16T07:14:12.219Z,1000.97
2019-03-16T07:15:12.136Z,1000.96
2019-03-16T07:16:12.057Z,1000.94
2019-03-16T07:17:11.970Z,1000.93
2019-03-16T07:18:11.885Z,1000.96
2019-03-16T07:19:11.808Z,1000.97
2019-03-16T07:20:11.719Z,1000.93
2019-03-16T07:21:11.640Z,1000.96
2019-03-16T07:22:11.559Z,1000.97
2019-03-16T07:23:11.490Z,1001.02
2019-03-16T07:24:11.383Z,1001.01
2019-03-16T07:25:11.310Z,1001.00
2019-03-16T07:26:15.073Z,1001.01
2019-03-16T07:27:11.134Z,1001.08
2019-03-16T07:28:11.059Z,1001.01
2019-03-16T07:29:10.971Z,1001.02
2019-03-16T07:30:10.887Z,1001.04
2019-03-16T07:31:10.813Z,1001.05
2019-03-16T07:32:10.722Z,1001.05
2019-03-16T07:33:10.638Z,1001.01
2019-03-16T07:34:10.562Z,1001.08
2019-03-16T07:35:10.471Z,1001.16
2019-03-16T07:36:10.385Z,1001.15
2019-03-16T07:37:10.312Z,1001.17
2019-03-16T07:38:10.234Z,1001.18
2019-03-16T07:39:10.135Z,1001.20
2019-03-16T07:40:10.060Z,1001.22
2019-03-16T07:41:09.974Z,1001.26
2019-03-16T07:42:10.187Z,1001.26
2019-03-16T07:43:09.810Z,1001.32
2019-03-16T07:44:09.722Z,1001.31
2019-03-16T07:45:09.636Z,1001.26
2019-03-16T07:46:09.560Z,1001.26
2019-03-16T07:47:09.472Z,1001.32
2019-03-16T07:48:09.386Z,1001.30
2019-03-16T07:49:09.311Z,1001.32
2019-03-16T07:50:09.223Z,1001.34
2019-03-16T07:51:09.148Z,1001.38
2019-03-16T07:52:09.061Z,1001.46
2019-03-16T07:53:08.994Z,1001.38
2019-03-16T07:54:08.898Z,1001.41
2019-03-16T07:55:08.824Z,1001.43
2019-03-16T07:56:08.724Z,1001.48
2019-03-16T07:57:08.649Z,1001.48
2019-03-16T07:58:08.563Z,1001.47
2019-03-16T07:59:08.487Z,1001.45
2019-03-16T08:00:08.402Z,1001.48
2019-03-16T08:01:08.316Z,1001.47
2019-03-16T08:02:08.250Z,1001.49
2019-03-16T08:03:08.149Z,1001.47
2019-03-16T08:04:08.075Z,1001.46
2019-03-16T08:05:18.113Z,1001.46
2019-03-16T08:06:07.899Z,1001.48
2019-03-16T08:07:07.826Z,1001.52
2019-03-16T08:08:07.738Z,1001.58
2019-03-16T08:09:07.680Z,1001.57
2019-03-16T08:10:07.576Z,1001.57
2019-03-16T08:11:07.489Z,1001.58
2019-03-16T08:12:07.419Z,1001.41
2019-03-16T08:13:07.326Z,1001.52
2019-03-16T08:14:07.252Z,1001.46
2019-03-16T08:15:07.164Z,1001.52
2019-03-16T08:16:07.077Z,1001.49
2019-03-16T08:17:07.013Z,1001.46
2019-03-16T08:18:08.009Z,1001.48
2019-03-16T08:19:06.843Z,1001.53
2019-03-16T08:20:06.751Z,1001.55
2019-03-16T08:21:06.664Z,1001.60
2019-03-16T08:22:06.890Z,1001.61
2019-03-16T08:23:06.502Z,1001.62
2019-03-16T08:24:06.427Z,1001.67
2019-03-16T08:25:06.342Z,1001.69
2019-03-16T08:26:06.264Z,1001.78
2019-03-16T08:27:07.504Z,1001.80
2019-03-16T08:28:06.095Z,1001.81
2019-03-16T08:29:06.017Z,1001.82
2019-03-16T08:30:05.928Z,1001.81
2019-03-16T08:31:05.853Z,1001.79
2019-03-16T08:32:05.771Z,1001.84
2019-03-16T08:33:05.678Z,1001.82
2019-03-16T08:34:05.609Z,1001.75
2019-03-16T08:35:05.516Z,1001.74
2019-03-16T08:36:05.430Z,1001.80
2019-03-16T08:37:05.366Z,1001.80
2019-03-16T08:38:05.267Z,1001.86
2019-03-16T08:39:05.198Z,1001.80
2019-03-16T08:40:05.263Z,1001.85
2019-03-16T08:41:05.029Z,1001.80
2019-03-16T08:42:04.964Z,1001.84
2019-03-16T08:43:04.867Z,1001.82
2019-03-16T08:44:04.786Z,1001.78
2019-03-16T08:45:04.697Z,1001.79
2019-03-16T08:46:04.618Z,1001.76
2019-03-16T08:47:04.534Z,1001.80
2019-03-16T08:48:04.443Z,1001.78
2019-03-16T08:49:04.369Z,1001.78
2019-03-16T08:50:04.281Z,1001.83
2019-03-16T08:51:04.205Z,1001.84
2019-03-16T08:52:04.120Z,1001.86
2019-03-16T08:53:04.030Z,1001.88
2019-03-16T08:54:03.955Z,1001.78
2019-03-16T08:55:03.870Z,1001.78
2019-03-16T08:56:03.781Z,1001.77
2019-03-16T08:57:03.705Z,1001.79
2019-03-16T08:58:06.245Z,1001.76
2019-03-16T08:59:03.552Z,1001.85
2019-03-16T09:00:03.458Z,1001.79
2019-03-16T09:01:03.381Z,1001.84
2019-03-16T09:02:03.294Z,1001.77
2019-03-16T09:03:03.206Z,1001.86
2019-03-16T09:04:03.153Z,1001.73
2019-03-16T09:05:03.044Z,1001.67
2019-03-16T09:06:02.970Z,1001.82
2019-03-16T09:07:03.202Z,1001.83
2019-03-16T09:08:02.797Z,1001.79
2019-03-16T09:09:02.719Z,1001.76
2019-03-16T09:10:02.634Z,1001.76
2019-03-16T09:11:02.557Z,1001.69
2019-03-16T09:12:02.471Z,1001.74
2019-03-16T09:13:02.384Z,1001.73
2019-03-16T09:14:02.310Z,1001.73
2019-03-16T09:15:02.221Z,1001.70
2019-03-16T09:16:02.145Z,1001.80
2019-03-16T09:17:02.057Z,1001.77
2019-03-16T09:18:02.016Z,1001.76
2019-03-16T09:19:01.903Z,1001.79
2019-03-16T09:20:01.809Z,1001.80
2019-03-16T09:21:01.733Z,1001.72
2019-03-16T09:22:01.904Z,1001.75
2019-03-16T09:23:01.645Z,1001.74
2019-03-16T09:24:01.485Z,1001.75
2019-03-16T09:25:01.398Z,1001.81
2019-03-16T09:26:01.322Z,1001.84
2019-03-16T09:27:01.234Z,1001.82
2019-03-16T09:28:01.172Z,1001.86
2019-03-16T09:29:01.071Z,1001.81
2019-03-16T09:30:01.001Z,1001.86
2019-03-16T09:31:00.911Z,1001.85
2019-03-16T09:32:00.822Z,1001.82
2019-03-16T09:33:00.748Z,1001.89
2019-03-16T09:34:00.660Z,1001.81
2019-03-16T09:35:00.597Z,1001.92
2019-03-16T09:36:00.498Z,1001.77
2019-03-16T09:37:00.423Z,1001.91
2019-03-16T09:38:00.335Z,1001.91
2019-03-16T09:39:00.249Z,1001.97
2019-03-16T09:40:00.271Z,1002.08
2019-03-16T09:41:00.085Z,1001.97
2019-03-16T09:42:00.016Z,1002.02
2019-03-16T09:42:59.926Z,1001.90
2019-03-16T09:44:01.981Z,1002.03
2019-03-16T09:44:59.760Z,1001.99
2019-03-16T09:45:59.673Z,1002.01
2019-03-16T09:46:59.601Z,1001.97
2019-03-16T09:47:59.511Z,1001.94
2019-03-16T09:48:59.436Z,1002.07
2019-03-16T09:49:59.349Z,1002.02
2019-03-16T09:50:59.277Z,1002.05
2019-03-16T09:51:59.187Z,1002.00
2019-03-16T09:52:59.100Z,1002.06
2019-03-16T09:53:59.026Z,1002.05
2019-03-16T09:54:58.954Z,1002.10
2019-03-16T09:55:58.863Z,1002.12
2019-03-16T09:57:01.563Z,1002.09
2019-03-16T09:57:58.709Z,1002.05
2019-03-16T09:58:58.614Z,1002.19
2019-03-16T09:59:58.526Z,1002.00
2019-03-16T10:00:58.449Z,1002.01
2019-03-16T10:01:58.363Z,1002.04
2019-03-16T10:02:58.289Z,1001.97
2019-03-16T10:03:58.202Z,1002.06
2019-03-16T10:04:58.128Z,1002.00
2019-03-16T10:05:58.038Z,1002.00
2019-03-16T10:06:57.963Z,1002.04
2019-03-16T10:07:57.877Z,1002.04
2019-03-16T10:08:57.790Z,1002.02
2019-03-16T10:09:57.717Z,1002.06
2019-03-16T10:10:57.651Z,1002.00
2019-03-16T10:11:57.552Z,1002.08
2019-03-16T10:12:57.463Z,1002.02
2019-03-16T10:13:57.409Z,1001.99
2019-03-16T10:14:57.306Z,1001.95
2019-03-16T10:15:57.230Z,1001.96
2019-03-16T10:16:57.139Z,1001.96
2019-03-16T10:17:57.064Z,1001.97
2019-03-16T10:18:56.978Z,1002.01
2019-03-16T10:19:56.893Z,1002.00
2019-03-16T10:20:56.817Z,1001.93
2019-03-16T10:21:56.989Z,1001.89
2019-03-16T10:22:56.656Z,1001.90
2019-03-16T10:23:56.565Z,1001.92
2019-03-16T10:24:56.489Z,1001.87
2019-03-16T10:25:56.413Z,1001.91
2019-03-16T10:26:56.328Z,1001.90
2019-03-16T10:27:56.243Z,1001.88
2019-03-16T10:28:56.178Z,1001.82
2019-03-16T10:29:56.078Z,1001.87
2019-03-16T10:30:56.005Z,1001.91
2019-03-16T10:31:55.917Z,1001.88
2019-03-16T10:32:55.840Z,1001.83
2019-03-16T10:33:55.754Z,1001.86
2019-03-16T10:34:55.667Z,1001.85
2019-03-16T10:35:55.591Z,1001.89
2019-03-16T10:36:55.504Z,1001.94
2019-03-16T10:37:55.429Z,1001.97
2019-03-16T10:38:55.341Z,1001.97
2019-03-16T10:39:55.304Z,1001.95
2019-03-16T10:40:55.180Z,1001.96
2019-03-16T10:41:55.105Z,1001.92
2019-03-16T10:42:55.030Z,1001.91
2019-03-16T10:43:54.941Z,1001.95
2019-03-16T10:44:54.857Z,1001.99
2019-03-16T10:45:54.780Z,1001.99
2019-03-16T10:46:54.694Z,1002.01
2019-03-16T10:47:54.621Z,1002.03
2019-03-16T10:48:54.532Z,1002.05
2019-03-16T10:49:54.444Z,1002.07
2019-03-16T10:50:54.368Z,1001.96
2019-03-16T10:51:54.281Z,1001.96
2019-03-16T10:52:54.207Z,1002.01
2019-03-16T10:53:54.118Z,1001.99
2019-03-16T10:54:54.042Z,1002.01
2019-03-16T10:55:53.958Z,1002.04
2019-03-16T10:56:54.131Z,1002.04
2019-03-16T10:57:53.795Z,1002.10
2019-03-16T10:58:56.763Z,1002.06
2019-03-16T10:59:53.632Z,1002.13
2019-03-16T11:00:53.557Z,1002.07
2019-03-16T11:01:53.469Z,1002.09
2019-03-16T11:02:53.395Z,1002.05
2019-03-16T11:03:53.320Z,1002.15
2019-03-16T11:04:53.222Z,1002.10
2019-03-16T11:05:53.146Z,1002.15
2019-03-16T11:06:53.058Z,1002.08
2019-03-16T11:07:52.982Z,1002.18
2019-03-16T11:08:52.895Z,1002.23
2019-03-16T11:09:52.820Z,1002.13
2019-03-16T11:10:52.732Z,1002.15
2019-03-16T11:11:52.646Z,1002.12
2019-03-16T11:12:52.570Z,1002.00
2019-03-16T11:13:52.484Z,1002.17
2019-03-16T11:14:52.408Z,1002.12
2019-03-16T11:15:52.324Z,1002.15
2019-03-16T11:16:52.245Z,1002.12
2019-03-16T11:17:52.174Z,1002.14
2019-03-16T11:18:52.074Z,1002.12
2019-03-16T11:19:52.009Z,1002.17
2019-03-16T11:20:52.010Z,1002.01
2019-03-16T11:21:51.838Z,1002.11
2019-03-16T11:22:51.747Z,1002.13
2019-03-16T11:23:51.673Z,1002.12
2019-03-16T11:24:51.586Z,1002.12
2019-03-16T11:25:51.498Z,1002.16
2019-03-16T11:26:51.423Z,1002.13
2019-03-16T11:27:51.338Z,1002.07
2019-03-16T11:28:51.249Z,1002.11
2019-03-16T11:29:51.175Z,1001.98
2019-03-16T11:30:51.086Z,1001.96
2019-03-16T11:31:51.010Z,1002.05
2019-03-16T11:32:50.923Z,1002.01
2019-03-16T11:33:50.837Z,1002.17
2019-03-16T11:34:50.761Z,1002.12
2019-03-16T11:35:50.675Z,1002.20
2019-03-16T11:36:50.597Z,1002.11
2019-03-16T11:37:50.511Z,1002.07
2019-03-16T11:38:50.424Z,1002.00
2019-03-16T11:39:50.348Z,1001.94
2019-03-16T11:40:50.261Z,1002.07
2019-03-16T11:41:50.174Z,1002.04
2019-03-16T11:42:50.113Z,1002.10
2019-03-16T11:43:50.012Z,1002.06
2019-03-16T11:44:49.924Z,1002.03
2019-03-16T11:45:49.849Z,1002.12
2019-03-16T11:46:49.763Z,1002.08
2019-03-16T11:47:49.687Z,1002.06
2019-03-16T11:48:49.609Z,1002.07
2019-03-16T11:49:49.517Z,1002.05
2019-03-16T11:50:49.425Z,1002.06
2019-03-16T11:51:49.353Z,1002.01
2019-03-16T11:52:49.263Z,1002.06
2019-03-16T11:53:49.178Z,1002.05
2019-03-16T11:54:49.100Z,1002.06
2019-03-16T11:55:49.018Z,1002.06
2019-03-16T11:56:49.250Z,1002.06
2019-03-16T11:57:48.839Z,1002.06
2019-03-16T11:58:48.764Z,1002.09
2019-03-16T11:59:48.689Z,1002.08
2019-03-16T12:00:48.588Z,1002.08
2019-03-16T12:01:48.517Z,1002.06
2019-03-16T12:02:48.426Z,1002.02
2019-03-16T12:03:48.342Z,1002.01
2019-03-16T12:04:48.315Z,1001.96
2019-03-16T12:05:48.176Z,1002.00
2019-03-16T12:06:48.088Z,1002.00
2019-03-16T12:07:48.002Z,1002.03
2019-03-16T12:08:47.927Z,1001.98
2019-03-16T12:09:47.840Z,1002.01
2019-03-16T12:10:47.752Z,1002.04
2019-03-16T12:11:47.760Z,1002.07
2019-03-16T12:12:47.591Z,1002.04
2019-03-16T12:13:47.516Z,1002.04
2019-03-16T12:14:47.440Z,1002.02
2019-03-16T12:15:47.340Z,1002.00